sensor_id;sensor_type;location;lat;lon;timestamp;P1;durP1;ratioP1;P2;durP2;ratioP2
787;SDS011;16074;42.708;23.312;2024-01-16T00:01:24;12.43;;;8.10;;
787;SDS011;16074;42.708;23.312;2024-01-16T00:03:50;14.75;;;8.38;;
787;SDS011;16074;42.708;23.312;2024-01-16T00:06:15;13.65;;;7.82;;
787;SDS011;16074;42.708;23.312;2024-01-16T00:08:41;19.40;;;9.00;;
787;SDS011;16074;42.708;23.312;2024-01-16T00:11:06;22.60;;;9.63;;
787;SDS011;16074;42.708;23.312;2024-01-16T00:13:32;19.58;;;9.60;;
787;SDS011;16074;42.708;23.312;2024-01-16T00:15:58;14.98;;;9.07;;
787;SDS011;16074;42.708;23.312;2024-01-16T00:18:23;17.80;;;8.93;;
787;SDS011;16074;42.708;23.312;2024-01-16T00:20:49;15.02;;;8.73;;
787;SDS011;16074;42.708;23.312;2024-01-16T00:23:14;17.33;;;8.88;;
787;SDS011;16074;42.708;23.312;2024-01-16T00:25:39;19.98;;;8.88;;
787;SDS011;16074;42.708;23.312;2024-01-16T00:28:06;16.75;;;8.77;;
787;SDS011;16074;42.708;23.312;2024-01-16T00:30:31;15.07;;;7.93;;
787;SDS011;16074;42.708;23.312;2024-01-16T00:32:58;15.98;;;8.25;;
787;SDS011;16074;42.708;23.312;2024-01-16T00:35:24;15.93;;;8.68;;
787;SDS011;16074;42.708;23.312;2024-01-16T00:37:50;15.25;;;8.57;;
787;SDS011;16074;42.708;23.312;2024-01-16T00:40:15;13.18;;;8.20;;
787;SDS011;16074;42.708;23.312;2024-01-16T00:42:41;12.80;;;7.53;;
787;SDS011;16074;42.708;23.312;2024-01-16T00:45:06;13.20;;;7.75;;
787;SDS011;16074;42.708;23.312;2024-01-16T00:47:32;11.63;;;6.97;;
787;SDS011;16074;42.708;23.312;2024-01-16T00:49:58;11.68;;;6.38;;
787;SDS011;16074;42.708;23.312;2024-01-16T00:52:25;9.80;;;5.43;;
787;SDS011;16074;42.708;23.312;2024-01-16T00:54:51;11.98;;;6.63;;
787;SDS011;16074;42.708;23.312;2024-01-16T00:57:16;15.48;;;8.52;;
787;SDS011;16074;42.708;23.312;2024-01-16T00:59:44;14.30;;;7.90;;
787;SDS011;16074;42.708;23.312;2024-01-16T01:02:10;10.75;;;6.13;;
787;SDS011;16074;42.708;23.312;2024-01-16T01:04:36;14.45;;;6.82;;
787;SDS011;16074;42.708;23.312;2024-01-16T01:07:02;13.25;;;8.07;;
787;SDS011;16074;42.708;23.312;2024-01-16T01:09:28;11.85;;;6.78;;
787;SDS011;16074;42.708;23.312;2024-01-16T01:11:53;11.13;;;6.22;;
787;SDS011;16074;42.708;23.312;2024-01-16T01:14:18;10.73;;;7.03;;
787;SDS011;16074;42.708;23.312;2024-01-16T01:16:44;12.65;;;7.00;;
787;SDS011;16074;42.708;23.312;2024-01-16T01:19:09;16.50;;;9.02;;
787;SDS011;16074;42.708;23.312;2024-01-16T01:21:35;15.48;;;9.60;;
787;SDS011;16074;42.708;23.312;2024-01-16T01:24:01;15.65;;;8.95;;
787;SDS011;16074;42.708;23.312;2024-01-16T01:26:26;13.10;;;8.27;;
787;SDS011;16074;42.708;23.312;2024-01-16T01:28:52;15.43;;;8.27;;
787;SDS011;16074;42.708;23.312;2024-01-16T01:31:17;15.63;;;8.93;;
787;SDS011;16074;42.708;23.312;2024-01-16T01:33:43;14.50;;;8.70;;
787;SDS011;16074;42.708;23.312;2024-01-16T01:36:08;14.93;;;8.93;;
787;SDS011;16074;42.708;23.312;2024-01-16T01:38:33;17.75;;;8.75;;
787;SDS011;16074;42.708;23.312;2024-01-16T01:40:59;14.38;;;7.85;;
787;SDS011;16074;42.708;23.312;2024-01-16T01:43:24;16.52;;;8.02;;
787;SDS011;16074;42.708;23.312;2024-01-16T01:48:28;14.05;;;7.57;;
787;SDS011;16074;42.708;23.312;2024-01-16T01:50:53;13.57;;;7.53;;
787;SDS011;16074;42.708;23.312;2024-01-16T01:53:19;12.50;;;6.70;;
787;SDS011;16074;42.708;23.312;2024-01-16T01:55:44;10.73;;;5.97;;
787;SDS011;16074;42.708;23.312;2024-01-16T01:58:10;8.68;;;5.07;;
787;SDS011;16074;42.708;23.312;2024-01-16T02:00:35;8.05;;;4.38;;
787;SDS011;16074;42.708;23.312;2024-01-16T02:03:00;7.68;;;4.93;;
787;SDS011;16074;42.708;23.312;2024-01-16T02:05:26;12.70;;;6.18;;
787;SDS011;16074;42.708;23.312;2024-01-16T02:07:54;13.57;;;6.20;;
787;SDS011;16074;42.708;23.312;2024-01-16T02:10:19;10.50;;;6.15;;
787;SDS011;16074;42.708;23.312;2024-01-16T02:12:45;13.85;;;6.72;;
787;SDS011;16074;42.708;23.312;2024-01-16T02:15:11;13.30;;;7.15;;
787;SDS011;16074;42.708;23.312;2024-01-16T02:17:36;12.65;;;7.07;;
787;SDS011;16074;42.708;23.312;2024-01-16T02:20:02;12.45;;;7.38;;
787;SDS011;16074;42.708;23.312;2024-01-16T02:22:27;14.70;;;6.63;;
787;SDS011;16074;42.708;23.312;2024-01-16T02:24:57;11.35;;;6.43;;
787;SDS011;16074;42.708;23.312;2024-01-16T02:27:22;14.00;;;6.75;;
787;SDS011;16074;42.708;23.312;2024-01-16T02:29:48;13.20;;;7.38;;
787;SDS011;16074;42.708;23.312;2024-01-16T02:32:13;13.10;;;7.03;;
787;SDS011;16074;42.708;23.312;2024-01-16T02:34:39;14.27;;;7.55;;
787;SDS011;16074;42.708;23.312;2024-01-16T02:37:04;12.35;;;6.78;;
787;SDS011;16074;42.708;23.312;2024-01-16T02:39:30;11.25;;;6.00;;
787;SDS011;16074;42.708;23.312;2024-01-16T02:41:55;10.57;;;6.45;;
787;SDS011;16074;42.708;23.312;2024-01-16T02:44:21;10.15;;;5.78;;
787;SDS011;16074;42.708;23.312;2024-01-16T02:46:47;12.77;;;6.43;;
787;SDS011;16074;42.708;23.312;2024-01-16T02:49:12;12.80;;;6.25;;
787;SDS011;16074;42.708;23.312;2024-01-16T02:51:37;12.13;;;6.82;;
787;SDS011;16074;42.708;23.312;2024-01-16T02:54:03;11.40;;;6.43;;
787;SDS011;16074;42.708;23.312;2024-01-16T02:56:28;9.65;;;6.03;;
787;SDS011;16074;42.708;23.312;2024-01-16T02:58:55;13.45;;;6.78;;
787;SDS011;16074;42.708;23.312;2024-01-16T03:01:21;10.65;;;6.38;;
787;SDS011;16074;42.708;23.312;2024-01-16T03:03:46;10.55;;;5.45;;
787;SDS011;16074;42.708;23.312;2024-01-16T03:06:21;9.55;;;5.60;;
787;SDS011;16074;42.708;23.312;2024-01-16T03:08:47;7.35;;;4.53;;
787;SDS011;16074;42.708;23.312;2024-01-16T03:11:12;10.13;;;3.67;;
787;SDS011;16074;42.708;23.312;2024-01-16T03:13:38;5.20;;;3.55;;
787;SDS011;16074;42.708;23.312;2024-01-16T03:16:06;5.05;;;2.60;;
787;SDS011;16074;42.708;23.312;2024-01-16T03:18:32;4.88;;;2.92;;
787;SDS011;16074;42.708;23.312;2024-01-16T03:20:58;6.07;;;3.60;;
787;SDS011;16074;42.708;23.312;2024-01-16T03:23:24;6.78;;;4.20;;
787;SDS011;16074;42.708;23.312;2024-01-16T03:25:50;5.25;;;3.72;;
787;SDS011;16074;42.708;23.312;2024-01-16T03:28:15;6.45;;;3.95;;
787;SDS011;16074;42.708;23.312;2024-01-16T03:30:40;6.40;;;4.20;;
787;SDS011;16074;42.708;23.312;2024-01-16T03:33:06;5.78;;;3.90;;
787;SDS011;16074;42.708;23.312;2024-01-16T03:35:31;6.93;;;4.47;;
787;SDS011;16074;42.708;23.312;2024-01-16T03:37:57;6.30;;;4.25;;
787;SDS011;16074;42.708;23.312;2024-01-16T03:40:22;7.55;;;3.58;;
787;SDS011;16074;42.708;23.312;2024-01-16T03:42:48;5.23;;;3.97;;
787;SDS011;16074;42.708;23.312;2024-01-16T03:45:13;6.07;;;4.53;;
787;SDS011;16074;42.708;23.312;2024-01-16T03:47:38;7.50;;;4.10;;
787;SDS011;16074;42.708;23.312;2024-01-16T03:50:04;4.85;;;3.53;;
787;SDS011;16074;42.708;23.312;2024-01-16T03:52:30;5.18;;;3.42;;
787;SDS011;16074;42.708;23.312;2024-01-16T03:54:55;4.80;;;3.83;;
787;SDS011;16074;42.708;23.312;2024-01-16T03:57:20;5.72;;;3.80;;
787;SDS011;16074;42.708;23.312;2024-01-16T03:59:46;4.47;;;3.15;;
787;SDS011;16074;42.708;23.312;2024-01-16T04:02:11;3.22;;;2.40;;
787;SDS011;16074;42.708;23.312;2024-01-16T04:04:37;3.35;;;2.90;;
787;SDS011;16074;42.708;23.312;2024-01-16T04:07:02;3.38;;;2.47;;
787;SDS011;16074;42.708;23.312;2024-01-16T04:09:28;3.78;;;3.17;;
787;SDS011;16074;42.708;23.312;2024-01-16T04:11:54;3.67;;;2.75;;
787;SDS011;16074;42.708;23.312;2024-01-16T04:14:19;3.83;;;2.33;;
787;SDS011;16074;42.708;23.312;2024-01-16T04:16:45;3.33;;;2.67;;
787;SDS011;16074;42.708;23.312;2024-01-16T04:19:10;4.90;;;2.63;;
787;SDS011;16074;42.708;23.312;2024-01-16T04:21:36;2.97;;;2.10;;
787;SDS011;16074;42.708;23.312;2024-01-16T04:24:02;2.72;;;2.05;;
787;SDS011;16074;42.708;23.312;2024-01-16T04:26:27;3.38;;;2.08;;
787;SDS011;16074;42.708;23.312;2024-01-16T04:28:53;2.30;;;2.10;;
787;SDS011;16074;42.708;23.312;2024-01-16T04:31:18;2.58;;;2.00;;
787;SDS011;16074;42.708;23.312;2024-01-16T04:33:46;2.67;;;1.98;;
787;SDS011;16074;42.708;23.312;2024-01-16T04:36:12;1.52;;;1.42;;
787;SDS011;16074;42.708;23.312;2024-01-16T04:38:37;2.03;;;1.70;;
787;SDS011;16074;42.708;23.312;2024-01-16T04:41:03;2.45;;;1.90;;
787;SDS011;16074;42.708;23.312;2024-01-16T04:43:28;2.58;;;2.17;;
787;SDS011;16074;42.708;23.312;2024-01-16T04:45:54;1.40;;;1.30;;
787;SDS011;16074;42.708;23.312;2024-01-16T04:48:19;2.15;;;1.80;;
787;SDS011;16074;42.708;23.312;2024-01-16T04:50:44;2.40;;;1.80;;
787;SDS011;16074;42.708;23.312;2024-01-16T04:53:10;2.47;;;1.95;;
787;SDS011;16074;42.708;23.312;2024-01-16T04:55:36;3.05;;;1.92;;
787;SDS011;16074;42.708;23.312;2024-01-16T04:58:01;2.85;;;2.03;;
787;SDS011;16074;42.708;23.312;2024-01-16T05:00:27;1.48;;;1.23;;
787;SDS011;16074;42.708;23.312;2024-01-16T05:02:52;2.50;;;1.75;;
787;SDS011;16074;42.708;23.312;2024-01-16T05:05:18;4.15;;;2.25;;
787;SDS011;16074;42.708;23.312;2024-01-16T05:07:43;2.45;;;1.70;;
787;SDS011;16074;42.708;23.312;2024-01-16T05:10:10;2.40;;;1.80;;
787;SDS011;16074;42.708;23.312;2024-01-16T05:12:38;2.83;;;2.22;;
787;SDS011;16074;42.708;23.312;2024-01-16T05:15:04;1.83;;;1.60;;
787;SDS011;16074;42.708;23.312;2024-01-16T05:17:30;2.45;;;1.52;;
787;SDS011;16074;42.708;23.312;2024-01-16T05:19:55;1.88;;;1.63;;
787;SDS011;16074;42.708;23.312;2024-01-16T05:22:21;2.35;;;1.75;;
787;SDS011;16074;42.708;23.312;2024-01-16T05:24:47;2.85;;;1.92;;
787;SDS011;16074;42.708;23.312;2024-01-16T05:27:12;3.85;;;2.03;;
787;SDS011;16074;42.708;23.312;2024-01-16T05:29:40;2.75;;;2.00;;
787;SDS011;16074;42.708;23.312;2024-01-16T05:32:05;2.10;;;1.90;;
787;SDS011;16074;42.708;23.312;2024-01-16T05:34:31;3.10;;;1.98;;
787;SDS011;16074;42.708;23.312;2024-01-16T05:36:56;3.78;;;2.20;;
787;SDS011;16074;42.708;23.312;2024-01-16T05:39:22;2.30;;;1.60;;
787;SDS011;16074;42.708;23.312;2024-01-16T05:41:47;2.70;;;1.88;;
787;SDS011;16074;42.708;23.312;2024-01-16T05:44:13;2.80;;;1.90;;
787;SDS011;16074;42.708;23.312;2024-01-16T05:46:38;3.25;;;1.90;;
787;SDS011;16074;42.708;23.312;2024-01-16T05:49:03;1.90;;;1.38;;
787;SDS011;16074;42.708;23.312;2024-01-16T05:51:29;2.17;;;1.40;;
787;SDS011;16074;42.708;23.312;2024-01-16T05:53:55;2.58;;;1.75;;
787;SDS011;16074;42.708;23.312;2024-01-16T05:56:20;2.60;;;1.40;;
787;SDS011;16074;42.708;23.312;2024-01-16T05:58:46;2.50;;;1.48;;
787;SDS011;16074;42.708;23.312;2024-01-16T06:01:11;2.80;;;1.50;;
787;SDS011;16074;42.708;23.312;2024-01-16T06:03:40;3.85;;;1.60;;
787;SDS011;16074;42.708;23.312;2024-01-16T06:06:06;2.75;;;1.35;;
787;SDS011;16074;42.708;23.312;2024-01-16T06:08:32;2.55;;;1.40;;
787;SDS011;16074;42.708;23.312;2024-01-16T06:10:58;1.92;;;1.73;;
787;SDS011;16074;42.708;23.312;2024-01-16T06:13:23;3.30;;;1.73;;
787;SDS011;16074;42.708;23.312;2024-01-16T06:15:49;2.17;;;1.60;;
787;SDS011;16074;42.708;23.312;2024-01-16T06:18:14;4.18;;;2.13;;
787;SDS011;16074;42.708;23.312;2024-01-16T06:20:39;2.97;;;2.00;;
787;SDS011;16074;42.708;23.312;2024-01-16T06:23:05;2.77;;;1.83;;
787;SDS011;16074;42.708;23.312;2024-01-16T06:25:30;2.60;;;1.98;;
787;SDS011;16074;42.708;23.312;2024-01-16T06:27:55;3.42;;;2.03;;
787;SDS011;16074;42.708;23.312;2024-01-16T06:30:24;3.85;;;1.88;;
787;SDS011;16074;42.708;23.312;2024-01-16T06:32:49;3.17;;;1.80;;
787;SDS011;16074;42.708;23.312;2024-01-16T06:35:15;2.00;;;1.48;;
787;SDS011;16074;42.708;23.312;2024-01-16T06:37:41;2.67;;;1.75;;
787;SDS011;16074;42.708;23.312;2024-01-16T06:40:07;2.70;;;1.67;;
787;SDS011;16074;42.708;23.312;2024-01-16T06:42:34;2.72;;;1.60;;
787;SDS011;16074;42.708;23.312;2024-01-16T06:45:01;3.38;;;1.95;;
787;SDS011;16074;42.708;23.312;2024-01-16T06:47:27;2.28;;;1.77;;
787;SDS011;16074;42.708;23.312;2024-01-16T06:49:52;3.03;;;1.92;;
787;SDS011;16074;42.708;23.312;2024-01-16T06:52:17;2.15;;;1.60;;
787;SDS011;16074;42.708;23.312;2024-01-16T06:54:43;3.67;;;2.10;;
787;SDS011;16074;42.708;23.312;2024-01-16T06:57:08;2.60;;;1.40;;
787;SDS011;16074;42.708;23.312;2024-01-16T06:59:33;2.37;;;1.80;;
787;SDS011;16074;42.708;23.312;2024-01-16T07:01:59;2.23;;;1.77;;
787;SDS011;16074;42.708;23.312;2024-01-16T07:04:24;3.27;;;1.73;;
787;SDS011;16074;42.708;23.312;2024-01-16T07:06:49;3.17;;;1.80;;
787;SDS011;16074;42.708;23.312;2024-01-16T07:09:15;2.20;;;1.63;;
787;SDS011;16074;42.708;23.312;2024-01-16T07:11:41;3.58;;;1.90;;
787;SDS011;16074;42.708;23.312;2024-01-16T07:14:09;2.92;;;1.95;;
787;SDS011;16074;42.708;23.312;2024-01-16T07:16:35;3.15;;;1.75;;
787;SDS011;16074;42.708;23.312;2024-01-16T07:19:01;2.67;;;2.10;;
787;SDS011;16074;42.708;23.312;2024-01-16T07:21:27;2.13;;;1.58;;
787;SDS011;16074;42.708;23.312;2024-01-16T07:23:53;2.55;;;1.52;;
787;SDS011;16074;42.708;23.312;2024-01-16T07:26:19;2.63;;;1.70;;
787;SDS011;16074;42.708;23.312;2024-01-16T07:28:44;1.65;;;1.55;;
787;SDS011;16074;42.708;23.312;2024-01-16T07:31:10;2.25;;;1.52;;
787;SDS011;16074;42.708;23.312;2024-01-16T07:33:36;2.85;;;2.10;;
787;SDS011;16074;42.708;23.312;2024-01-16T07:36:02;3.97;;;2.07;;
787;SDS011;16074;42.708;23.312;2024-01-16T07:38:27;2.53;;;1.90;;
787;SDS011;16074;42.708;23.312;2024-01-16T07:40:52;3.00;;;1.90;;
787;SDS011;16074;42.708;23.312;2024-01-16T07:43:18;2.63;;;1.63;;
787;SDS011;16074;42.708;23.312;2024-01-16T07:45:43;2.63;;;2.03;;
787;SDS011;16074;42.708;23.312;2024-01-16T07:48:08;3.20;;;1.70;;
787;SDS011;16074;42.708;23.312;2024-01-16T07:50:34;2.13;;;1.55;;
787;SDS011;16074;42.708;23.312;2024-01-16T07:52:59;4.63;;;2.00;;
787;SDS011;16074;42.708;23.312;2024-01-16T07:55:25;4.30;;;2.13;;
787;SDS011;16074;42.708;23.312;2024-01-16T07:57:50;3.70;;;2.28;;
787;SDS011;16074;42.708;23.312;2024-01-16T08:00:15;2.00;;;1.67;;
787;SDS011;16074;42.708;23.312;2024-01-16T08:02:41;5.72;;;3.65;;
787;SDS011;16074;42.708;23.312;2024-01-16T08:05:06;3.03;;;1.88;;
787;SDS011;16074;42.708;23.312;2024-01-16T08:07:32;3.88;;;2.55;;
787;SDS011;16074;42.708;23.312;2024-01-16T08:09:57;3.65;;;1.92;;
787;SDS011;16074;42.708;23.312;2024-01-16T08:12:23;2.43;;;1.70;;
787;SDS011;16074;42.708;23.312;2024-01-16T08:14:48;8.98;;;2.28;;
787;SDS011;16074;42.708;23.312;2024-01-16T08:17:14;2.00;;;1.67;;
787;SDS011;16074;42.708;23.312;2024-01-16T08:19:39;3.15;;;1.83;;
787;SDS011;16074;42.708;23.312;2024-01-16T08:22:04;1.85;;;1.38;;
787;SDS011;16074;42.708;23.312;2024-01-16T08:24:31;2.20;;;1.38;;
787;SDS011;16074;42.708;23.312;2024-01-16T08:26:56;1.60;;;1.10;;
787;SDS011;16074;42.708;23.312;2024-01-16T08:29:23;1.95;;;1.42;;
787;SDS011;16074;42.708;23.312;2024-01-16T08:31:51;2.67;;;1.85;;
787;SDS011;16074;42.708;23.312;2024-01-16T08:34:17;3.88;;;2.13;;
787;SDS011;16074;42.708;23.312;2024-01-16T08:36:43;4.90;;;2.28;;
787;SDS011;16074;42.708;23.312;2024-01-16T08:39:09;11.13;;;3.30;;
787;SDS011;16074;42.708;23.312;2024-01-16T08:41:35;2.67;;;1.65;;
787;SDS011;16074;42.708;23.312;2024-01-16T08:44:01;7.15;;;2.42;;
787;SDS011;16074;42.708;23.312;2024-01-16T08:46:26;4.55;;;1.75;;
787;SDS011;16074;42.708;23.312;2024-01-16T08:48:51;4.80;;;2.23;;
787;SDS011;16074;42.708;23.312;2024-01-16T08:51:17;3.55;;;2.15;;
787;SDS011;16074;42.708;23.312;2024-01-16T08:53:42;3.50;;;2.15;;
787;SDS011;16074;42.708;23.312;2024-01-16T08:56:08;3.20;;;2.05;;
787;SDS011;16074;42.708;23.312;2024-01-16T08:58:33;5.28;;;1.70;;
787;SDS011;16074;42.708;23.312;2024-01-16T09:01:06;5.40;;;2.20;;
787;SDS011;16074;42.708;23.312;2024-01-16T09:03:32;3.90;;;1.98;;
787;SDS011;16074;42.708;23.312;2024-01-16T09:05:57;3.65;;;1.63;;
787;SDS011;16074;42.708;23.312;2024-01-16T09:08:23;4.03;;;1.95;;
787;SDS011;16074;42.708;23.312;2024-01-16T09:10:48;3.85;;;2.03;;
787;SDS011;16074;42.708;23.312;2024-01-16T09:13:14;2.35;;;1.67;;
787;SDS011;16074;42.708;23.312;2024-01-16T09:15:39;3.40;;;1.70;;
787;SDS011;16074;42.708;23.312;2024-01-16T09:18:04;3.13;;;1.52;;
787;SDS011;16074;42.708;23.312;2024-01-16T09:20:30;4.18;;;2.60;;
787;SDS011;16074;42.708;23.312;2024-01-16T09:22:56;2.95;;;2.20;;
787;SDS011;16074;42.708;23.312;2024-01-16T09:25:22;6.15;;;2.55;;
787;SDS011;16074;42.708;23.312;2024-01-16T09:27:49;2.20;;;2.00;;
787;SDS011;16074;42.708;23.312;2024-01-16T09:30:15;2.95;;;1.65;;
787;SDS011;16074;42.708;23.312;2024-01-16T09:32:41;3.80;;;2.22;;
787;SDS011;16074;42.708;23.312;2024-01-16T09:35:07;5.07;;;2.25;;
787;SDS011;16074;42.708;23.312;2024-01-16T09:37:34;5.13;;;2.72;;
787;SDS011;16074;42.708;23.312;2024-01-16T09:40:00;3.58;;;1.63;;
787;SDS011;16074;42.708;23.312;2024-01-16T09:42:26;3.05;;;1.83;;
787;SDS011;16074;42.708;23.312;2024-01-16T09:44:52;3.42;;;2.42;;
787;SDS011;16074;42.708;23.312;2024-01-16T09:47:20;4.47;;;2.15;;
787;SDS011;16074;42.708;23.312;2024-01-16T09:49:46;3.35;;;1.73;;
787;SDS011;16074;42.708;23.312;2024-01-16T09:52:13;3.28;;;1.98;;
787;SDS011;16074;42.708;23.312;2024-01-16T09:54:39;3.08;;;1.90;;
787;SDS011;16074;42.708;23.312;2024-01-16T09:57:05;2.88;;;1.70;;
787;SDS011;16074;42.708;23.312;2024-01-16T09:59:32;1.75;;;1.50;;
787;SDS011;16074;42.708;23.312;2024-01-16T10:02:00;3.15;;;1.92;;
787;SDS011;16074;42.708;23.312;2024-01-16T10:04:30;4.25;;;1.80;;
787;SDS011;16074;42.708;23.312;2024-01-16T10:06:56;1.95;;;1.70;;
787;SDS011;16074;42.708;23.312;2024-01-16T10:09:23;3.08;;;1.60;;
787;SDS011;16074;42.708;23.312;2024-01-16T10:11:49;2.30;;;1.67;;
787;SDS011;16074;42.708;23.312;2024-01-16T10:14:15;3.33;;;1.73;;
787;SDS011;16074;42.708;23.312;2024-01-16T10:16:56;2.83;;;2.38;;
787;SDS011;16074;42.708;23.312;2024-01-16T10:19:23;2.67;;;1.60;;
787;SDS011;16074;42.708;23.312;2024-01-16T10:21:48;2.47;;;1.80;;
787;SDS011;16074;42.708;23.312;2024-01-16T10:24:14;2.25;;;1.50;;
787;SDS011;16074;42.708;23.312;2024-01-16T10:26:39;2.07;;;1.50;;
787;SDS011;16074;42.708;23.312;2024-01-16T10:29:05;7.22;;;2.80;;
787;SDS011;16074;42.708;23.312;2024-01-16T10:31:30;3.22;;;1.98;;
787;SDS011;16074;42.708;23.312;2024-01-16T10:33:56;3.63;;;1.98;;
787;SDS011;16074;42.708;23.312;2024-01-16T10:36:22;5.40;;;2.45;;
787;SDS011;16074;42.708;23.312;2024-01-16T10:38:50;3.38;;;2.03;;
787;SDS011;16074;42.708;23.312;2024-01-16T10:41:22;3.53;;;1.90;;
787;SDS011;16074;42.708;23.312;2024-01-16T10:44:02;2.15;;;1.70;;
787;SDS011;16074;42.708;23.312;2024-01-16T10:46:29;2.45;;;1.55;;
787;SDS011;16074;42.708;23.312;2024-01-16T10:49:02;2.60;;;1.88;;
787;SDS011;16074;42.708;23.312;2024-01-16T10:51:28;2.30;;;2.10;;
787;SDS011;16074;42.708;23.312;2024-01-16T10:53:58;3.13;;;1.80;;
787;SDS011;16074;42.708;23.312;2024-01-16T10:56:28;6.22;;;2.13;;
787;SDS011;16074;42.708;23.312;2024-01-16T10:59:18;4.03;;;1.80;;
787;SDS011;16074;42.708;23.312;2024-01-16T11:01:43;3.33;;;1.73;;
787;SDS011;16074;42.708;23.312;2024-01-16T11:04:13;6.00;;;1.80;;
787;SDS011;16074;42.708;23.312;2024-01-16T11:06:39;6.70;;;2.22;;
787;SDS011;16074;42.708;23.312;2024-01-16T11:09:07;3.00;;;1.92;;
787;SDS011;16074;42.708;23.312;2024-01-16T11:11:33;3.33;;;1.85;;
787;SDS011;16074;42.708;23.312;2024-01-16T11:14:01;4.43;;;2.03;;
787;SDS011;16074;42.708;23.312;2024-01-16T11:16:28;3.75;;;2.40;;
787;SDS011;16074;42.708;23.312;2024-01-16T11:18:57;4.05;;;2.50;;
787;SDS011;16074;42.708;23.312;2024-01-16T11:21:23;3.15;;;1.98;;
787;SDS011;16074;42.708;23.312;2024-01-16T11:23:50;3.92;;;2.13;;
787;SDS011;16074;42.708;23.312;2024-01-16T11:26:32;3.50;;;1.33;;
787;SDS011;16074;42.708;23.312;2024-01-16T11:28:59;2.70;;;1.77;;
787;SDS011;16074;42.708;23.312;2024-01-16T11:36:42;3.33;;;1.33;;
787;SDS011;16074;42.708;23.312;2024-01-16T11:41:49;2.35;;;1.33;;
787;SDS011;16074;42.708;23.312;2024-01-16T11:47:04;2.53;;;2.08;;
787;SDS011;16074;42.708;23.312;2024-01-16T11:49:29;3.38;;;1.73;;
787;SDS011;16074;42.708;23.312;2024-01-16T11:51:58;3.35;;;2.05;;
787;SDS011;16074;42.708;23.312;2024-01-16T11:57:01;3.63;;;1.65;;
787;SDS011;16074;42.708;23.312;2024-01-16T11:59:57;4.90;;;2.50;;
787;SDS011;16074;42.708;23.312;2024-01-16T12:02:26;3.67;;;2.00;;
787;SDS011;16074;42.708;23.312;2024-01-16T12:05:04;2.65;;;1.88;;
787;SDS011;16074;42.708;23.312;2024-01-16T12:07:42;5.97;;;2.58;;
787;SDS011;16074;42.708;23.312;2024-01-16T12:10:14;6.85;;;2.75;;
787;SDS011;16074;42.708;23.312;2024-01-16T12:12:40;3.72;;;2.30;;
787;SDS011;16074;42.708;23.312;2024-01-16T12:15:06;5.78;;;2.72;;
787;SDS011;16074;42.708;23.312;2024-01-16T12:17:32;7.72;;;2.78;;
787;SDS011;16074;42.708;23.312;2024-01-16T12:19:57;3.22;;;2.00;;
787;SDS011;16074;42.708;23.312;2024-01-16T12:22:22;8.25;;;2.85;;
787;SDS011;16074;42.708;23.312;2024-01-16T12:24:48;5.75;;;2.35;;
787;SDS011;16074;42.708;23.312;2024-01-16T12:27:13;3.15;;;2.22;;
787;SDS011;16074;42.708;23.312;2024-01-16T12:29:40;3.63;;;2.10;;
787;SDS011;16074;42.708;23.312;2024-01-16T12:32:12;4.22;;;2.72;;
787;SDS011;16074;42.708;23.312;2024-01-16T12:34:43;4.38;;;2.38;;
787;SDS011;16074;42.708;23.312;2024-01-16T12:37:10;6.32;;;3.22;;
787;SDS011;16074;42.708;23.312;2024-01-16T12:39:36;3.97;;;1.65;;
787;SDS011;16074;42.708;23.312;2024-01-16T12:42:02;3.40;;;1.92;;
787;SDS011;16074;42.708;23.312;2024-01-16T12:44:28;3.00;;;1.42;;
787;SDS011;16074;42.708;23.312;2024-01-16T12:46:57;4.57;;;2.17;;
787;SDS011;16074;42.708;23.312;2024-01-16T12:51:48;5.10;;;2.15;;
787;SDS011;16074;42.708;23.312;2024-01-16T12:54:15;4.22;;;1.60;;
787;SDS011;16074;42.708;23.312;2024-01-16T12:56:42;4.57;;;2.28;;
787;SDS011;16074;42.708;23.312;2024-01-16T12:59:11;3.35;;;2.20;;
787;SDS011;16074;42.708;23.312;2024-01-16T13:01:39;3.20;;;1.90;;
787;SDS011;16074;42.708;23.312;2024-01-16T13:04:07;4.30;;;2.42;;
787;SDS011;16074;42.708;23.312;2024-01-16T13:06:33;3.67;;;2.15;;
787;SDS011;16074;42.708;23.312;2024-01-16T13:09:08;3.17;;;2.30;;
787;SDS011;16074;42.708;23.312;2024-01-16T13:11:50;3.17;;;2.10;;
787;SDS011;16074;42.708;23.312;2024-01-16T13:14:18;3.22;;;1.80;;
787;SDS011;16074;42.708;23.312;2024-01-16T13:16:46;2.92;;;1.95;;
787;SDS011;16074;42.708;23.312;2024-01-16T13:19:11;9.77;;;3.80;;
787;SDS011;16074;42.708;23.312;2024-01-16T13:21:37;4.13;;;2.22;;
787;SDS011;16074;42.708;23.312;2024-01-16T13:24:03;4.03;;;2.10;;
787;SDS011;16074;42.708;23.312;2024-01-16T13:26:29;5.20;;;2.30;;
787;SDS011;16074;42.708;23.312;2024-01-16T13:28:54;5.07;;;2.47;;
787;SDS011;16074;42.708;23.312;2024-01-16T13:31:20;4.55;;;2.35;;
787;SDS011;16074;42.708;23.312;2024-01-16T13:33:45;3.50;;;2.30;;
787;SDS011;16074;42.708;23.312;2024-01-16T13:36:10;4.35;;;2.70;;
787;SDS011;16074;42.708;23.312;2024-01-16T13:38:36;4.82;;;2.78;;
787;SDS011;16074;42.708;23.312;2024-01-16T13:41:02;4.70;;;2.75;;
787;SDS011;16074;42.708;23.312;2024-01-16T13:43:27;4.13;;;2.35;;
787;SDS011;16074;42.708;23.312;2024-01-16T13:45:53;4.73;;;2.60;;
787;SDS011;16074;42.708;23.312;2024-01-16T13:48:19;5.55;;;3.03;;
787;SDS011;16074;42.708;23.312;2024-01-16T13:50:44;5.03;;;2.40;;
787;SDS011;16074;42.708;23.312;2024-01-16T13:53:10;6.97;;;2.67;;
787;SDS011;16074;42.708;23.312;2024-01-16T13:55:38;4.63;;;2.72;;
787;SDS011;16074;42.708;23.312;2024-01-16T13:58:08;6.35;;;2.83;;
787;SDS011;16074;42.708;23.312;2024-01-16T14:00:33;5.82;;;2.67;;
787;SDS011;16074;42.708;23.312;2024-01-16T14:02:59;3.85;;;2.72;;
787;SDS011;16074;42.708;23.312;2024-01-16T14:05:24;5.28;;;2.70;;
787;SDS011;16074;42.708;23.312;2024-01-16T14:07:51;4.85;;;2.55;;
787;SDS011;16074;42.708;23.312;2024-01-16T14:10:20;3.72;;;1.95;;
787;SDS011;16074;42.708;23.312;2024-01-16T14:15:13;4.70;;;2.50;;
787;SDS011;16074;42.708;23.312;2024-01-16T14:17:49;2.45;;;1.70;;
787;SDS011;16074;42.708;23.312;2024-01-16T14:20:16;2.67;;;1.80;;
787;SDS011;16074;42.708;23.312;2024-01-16T14:22:43;3.72;;;2.05;;
787;SDS011;16074;42.708;23.312;2024-01-16T14:25:09;3.95;;;2.17;;
787;SDS011;16074;42.708;23.312;2024-01-16T14:27:42;2.65;;;2.03;;
787;SDS011;16074;42.708;23.312;2024-01-16T14:32:39;5.95;;;2.40;;
787;SDS011;16074;42.708;23.312;2024-01-16T14:35:05;8.57;;;5.45;;
787;SDS011;16074;42.708;23.312;2024-01-16T14:37:32;6.03;;;3.25;;
787;SDS011;16074;42.708;23.312;2024-01-16T14:39:58;4.07;;;2.67;;
787;SDS011;16074;42.708;23.312;2024-01-16T14:42:43;4.47;;;2.55;;
787;SDS011;16074;42.708;23.312;2024-01-16T14:45:09;3.22;;;2.20;;
787;SDS011;16074;42.708;23.312;2024-01-16T14:47:36;4.82;;;2.50;;
787;SDS011;16074;42.708;23.312;2024-01-16T14:50:03;4.18;;;2.70;;
787;SDS011;16074;42.708;23.312;2024-01-16T14:52:29;3.97;;;2.75;;
787;SDS011;16074;42.708;23.312;2024-01-16T14:54:57;7.35;;;3.22;;
787;SDS011;16074;42.708;23.312;2024-01-16T14:57:23;4.25;;;3.00;;
787;SDS011;16074;42.708;23.312;2024-01-16T14:59:49;6.70;;;3.63;;
787;SDS011;16074;42.708;23.312;2024-01-16T15:02:15;7.97;;;3.95;;
787;SDS011;16074;42.708;23.312;2024-01-16T15:04:41;7.90;;;3.60;;
787;SDS011;16074;42.708;23.312;2024-01-16T15:07:08;5.90;;;3.38;;
787;SDS011;16074;42.708;23.312;2024-01-16T15:09:34;7.13;;;3.92;;
787;SDS011;16074;42.708;23.312;2024-01-16T15:12:00;8.27;;;4.28;;
787;SDS011;16074;42.708;23.312;2024-01-16T15:14:26;7.35;;;4.18;;
787;SDS011;16074;42.708;23.312;2024-01-16T15:16:51;8.57;;;3.75;;